Terminal Aerodrome Forecast
Issued by NWS Tuscon, AZ

Home | Current Version | Previous Version | Text Only | Print | Product List | Glossary On
Versions: 1 2 3 4 5 6 7 8 9 10 11 12
000
FTUS45 KTWC 261700
TAFDUG
TAF
KDUG 261739Z 2618/2718 24009KT P6SM BKN070 OVC120
     FM262200 12008KT P6SM -SHRA BKN035 OVC050
     FM270400 07006KT P6SM VCSH BKN040 OVC060
     FM270800 VRB04KT P6SM FEW010 BKN035=

USA.gov is the U.S. government's official web portal to all federal, state and local government web resources and services.